sensor_id;sensor_type;location;lat;lon;timestamp;pressure;altitude;pressure_sealevel;temperature;humidity
43147;BME280;28752;48.266;7.402;2022-09-24T00:01:17;99110.47;;;13.35;81.77
43147;BME280;28752;48.266;7.402;2022-09-24T00:03:48;99123.72;;;13.43;82.17
43147;BME280;28752;48.266;7.402;2022-09-24T00:06:15;99119.94;;;13.38;82.86
43147;BME280;28752;48.266;7.402;2022-09-24T00:08:46;99114.59;;;13.29;82.89
43147;BME280;28752;48.266;7.402;2022-09-24T00:11:13;99119.44;;;13.34;82.18
43147;BME280;28752;48.266;7.402;2022-09-24T00:13:39;99115.25;;;13.31;81.81
43147;BME280;28752;48.266;7.402;2022-09-24T00:16:08;99126.91;;;13.30;82.31
43147;BME280;28752;48.266;7.402;2022-09-24T00:18:34;99085.44;;;13.05;82.37
43147;BME280;28752;48.266;7.402;2022-09-24T00:21:00;99108.47;;;13.21;82.79
43147;BME280;28752;48.266;7.402;2022-09-24T00:23:34;99095.88;;;13.14;82.74
43147;BME280;28752;48.266;7.402;2022-09-24T00:26:00;99112.28;;;13.26;83.14
43147;BME280;28752;48.266;7.402;2022-09-24T00:28:43;99087.75;;;13.08;82.88
43147;BME280;28752;48.266;7.402;2022-09-24T00:31:09;99101.88;;;13.17;83.18
43147;BME280;28752;48.266;7.402;2022-09-24T00:33:34;99107.66;;;13.20;82.75
43147;BME280;28752;48.266;7.402;2022-09-24T00:36:02;99109.81;;;13.25;82.76
43147;BME280;28752;48.266;7.402;2022-09-24T00:38:31;99098.34;;;13.16;82.71
43147;BME280;28752;48.266;7.402;2022-09-24T00:40:58;99088.75;;;13.15;82.93
43147;BME280;28752;48.266;7.402;2022-09-24T00:43:30;99093.53;;;13.20;82.88
43147;BME280;28752;48.266;7.402;2022-09-24T00:46:22;99099.03;;;13.18;83.52
43147;BME280;28752;48.266;7.402;2022-09-24T00:48:51;99108.00;;;13.17;83.94
43147;BME280;28752;48.266;7.402;2022-09-24T00:51:20;99096.22;;;13.11;83.65
43147;BME280;28752;48.266;7.402;2022-09-24T00:53:50;99086.09;;;13.07;84.08
43147;BME280;28752;48.266;7.402;2022-09-24T00:56:18;99104.34;;;13.18;84.23
43147;BME280;28752;48.266;7.402;2022-09-24T00:58:48;99104.19;;;13.11;84.16
43147;BME280;28752;48.266;7.402;2022-09-24T01:01:17;99098.72;;;13.05;84.77
43147;BME280;28752;48.266;7.402;2022-09-24T01:03:44;99102.72;;;13.09;84.42
43147;BME280;28752;48.266;7.402;2022-09-24T01:06:11;99099.88;;;13.10;84.62
43147;BME280;28752;48.266;7.402;2022-09-24T01:08:37;99090.72;;;13.13;84.59
43147;BME280;28752;48.266;7.402;2022-09-24T01:17:02;99083.94;;;13.10;84.83
43147;BME280;28752;48.266;7.402;2022-09-24T01:30:49;99068.34;;;13.07;85.69
43147;BME280;28752;48.266;7.402;2022-09-24T01:33:21;99072.97;;;13.05;86.10
43147;BME280;28752;48.266;7.402;2022-09-24T01:35:53;99077.13;;;13.00;86.27
43147;BME280;28752;48.266;7.402;2022-09-24T01:38:31;99079.78;;;13.00;86.39
43147;BME280;28752;48.266;7.402;2022-09-24T01:40:59;99074.97;;;12.95;86.00
43147;BME280;28752;48.266;7.402;2022-09-24T01:43:28;99072.84;;;12.98;86.33
43147;BME280;28752;48.266;7.402;2022-09-24T01:45:55;99074.00;;;12.96;86.33
43147;BME280;28752;48.266;7.402;2022-09-24T01:48:25;99072.31;;;12.95;86.38
43147;BME280;28752;48.266;7.402;2022-09-24T01:50:57;99056.41;;;12.87;86.92
43147;BME280;28752;48.266;7.402;2022-09-24T01:53:28;99069.66;;;12.95;86.89
43147;BME280;28752;48.266;7.402;2022-09-24T01:56:04;99057.75;;;12.91;87.03
43147;BME280;28752;48.266;7.402;2022-09-24T01:59:05;99068.88;;;12.86;87.77
43147;BME280;28752;48.266;7.402;2022-09-24T02:01:47;99075.19;;;12.85;87.51
43147;BME280;28752;48.266;7.402;2022-09-24T02:04:17;99077.50;;;12.88;87.19
43147;BME280;28752;48.266;7.402;2022-09-24T02:06:50;99073.69;;;12.91;87.16
43147;BME280;28752;48.266;7.402;2022-09-24T02:12:19;99070.84;;;12.84;87.76
43147;BME280;28752;48.266;7.402;2022-09-24T02:14:53;99071.88;;;12.83;88.09
43147;BME280;28752;48.266;7.402;2022-09-24T02:17:24;99065.25;;;12.79;88.38
43147;BME280;28752;48.266;7.402;2022-09-24T02:19:53;99061.94;;;12.77;88.51
43147;BME280;28752;48.266;7.402;2022-09-24T02:22:21;99062.59;;;12.79;88.69
43147;BME280;28752;48.266;7.402;2022-09-24T02:24:54;99063.41;;;12.79;88.84
43147;BME280;28752;48.266;7.402;2022-09-24T02:27:25;99065.88;;;12.81;88.33
43147;BME280;28752;48.266;7.402;2022-09-24T02:29:54;99050.97;;;12.80;88.19
43147;BME280;28752;48.266;7.402;2022-09-24T02:32:22;99059.06;;;12.87;87.82
43147;BME280;28752;48.266;7.402;2022-09-24T02:34:53;99055.78;;;12.85;87.86
43147;BME280;28752;48.266;7.402;2022-09-24T02:37:23;99045.97;;;12.85;87.74
43147;BME280;28752;48.266;7.402;2022-09-24T02:39:49;99057.88;;;12.97;87.12
43147;BME280;28752;48.266;7.402;2022-09-24T02:42:15;99062.03;;;12.92;86.59
43147;BME280;28752;48.266;7.402;2022-09-24T02:44:42;99065.53;;;12.92;86.29
43147;BME280;28752;48.266;7.402;2022-09-24T02:47:07;99039.81;;;12.76;86.67
43147;BME280;28752;48.266;7.402;2022-09-24T02:49:33;99035.53;;;12.75;86.86
43147;BME280;28752;48.266;7.402;2022-09-24T02:51:58;99049.78;;;12.83;86.82
43147;BME280;28752;48.266;7.402;2022-09-24T02:54:23;99056.44;;;12.78;88.21
43147;BME280;28752;48.266;7.402;2022-09-24T02:56:50;99042.19;;;12.71;89.00
43147;BME280;28752;48.266;7.402;2022-09-24T02:59:15;99043.19;;;12.62;89.79
43147;BME280;28752;48.266;7.402;2022-09-24T03:01:41;99035.72;;;12.57;90.09
43147;BME280;28752;48.266;7.402;2022-09-24T03:04:06;99041.53;;;12.61;89.99
43147;BME280;28752;48.266;7.402;2022-09-24T03:06:32;99029.56;;;12.57;90.24
43147;BME280;28752;48.266;7.402;2022-09-24T03:08:57;99000.41;;;12.40;90.41
43147;BME280;28752;48.266;7.402;2022-09-24T03:11:23;99027.25;;;12.54;90.62
43147;BME280;28752;48.266;7.402;2022-09-24T03:13:49;99027.63;;;12.42;90.84
43147;BME280;28752;48.266;7.402;2022-09-24T03:16:16;99021.47;;;12.34;91.52
43147;BME280;28752;48.266;7.402;2022-09-24T03:18:41;99029.75;;;12.39;91.42
43147;BME280;28752;48.266;7.402;2022-09-24T03:21:10;99019.47;;;12.36;91.44
43147;BME280;28752;48.266;7.402;2022-09-24T03:23:36;99016.16;;;12.34;91.35
43147;BME280;28752;48.266;7.402;2022-09-24T03:26:02;99021.16;;;12.29;91.67
43147;BME280;28752;48.266;7.402;2022-09-24T03:28:28;99015.00;;;12.28;91.50
43147;BME280;28752;48.266;7.402;2022-09-24T03:30:53;99017.00;;;12.26;91.60
43147;BME280;28752;48.266;7.402;2022-09-24T03:38:33;99011.19;;;12.31;90.76
43147;BME280;28752;48.266;7.402;2022-09-24T03:41:00;99006.22;;;12.27;90.63
43147;BME280;28752;48.266;7.402;2022-09-24T03:43:25;98990.28;;;12.11;91.49
43147;BME280;28752;48.266;7.402;2022-09-24T03:45:54;99010.69;;;12.19;91.77
43147;BME280;28752;48.266;7.402;2022-09-24T03:48:21;99005.03;;;12.22;91.84
43147;BME280;28752;48.266;7.402;2022-09-24T03:50:47;98994.59;;;12.20;91.88
43147;BME280;28752;48.266;7.402;2022-09-24T03:53:13;99001.25;;;12.16;92.65
43147;BME280;28752;48.266;7.402;2022-09-24T03:55:43;98995.78;;;12.18;92.75
43147;BME280;28752;48.266;7.402;2022-09-24T03:58:11;98997.25;;;12.20;92.39
43147;BME280;28752;48.266;7.402;2022-09-24T04:00:36;98993.63;;;12.13;92.62
43147;BME280;28752;48.266;7.402;2022-09-24T04:03:02;98986.00;;;12.10;92.79
43147;BME280;28752;48.266;7.402;2022-09-24T04:05:27;98991.31;;;12.10;92.53
43147;BME280;28752;48.266;7.402;2022-09-24T04:07:54;98989.66;;;12.09;92.68
43147;BME280;28752;48.266;7.402;2022-09-24T04:10:20;98986.13;;;12.08;92.41
43147;BME280;28752;48.266;7.402;2022-09-24T04:12:47;98996.44;;;12.03;92.73
43147;BME280;28752;48.266;7.402;2022-09-24T04:15:12;98999.44;;;12.17;92.75
43147;BME280;28752;48.266;7.402;2022-09-24T04:17:40;98993.94;;;12.18;92.62
43147;BME280;28752;48.266;7.402;2022-09-24T04:20:06;98991.47;;;12.17;92.65
43147;BME280;28752;48.266;7.402;2022-09-24T04:22:33;98992.63;;;12.22;92.45
43147;BME280;28752;48.266;7.402;2022-09-24T04:24:58;98979.84;;;12.18;92.72
43147;BME280;28752;48.266;7.402;2022-09-24T04:27:24;98990.31;;;12.19;91.95
43147;BME280;28752;48.266;7.402;2022-09-24T04:29:49;98983.97;;;12.20;91.74
43147;BME280;28752;48.266;7.402;2022-09-24T04:32:15;98977.53;;;12.23;92.20
43147;BME280;28752;48.266;7.402;2022-09-24T04:34:40;98989.63;;;12.25;92.60
43147;BME280;28752;48.266;7.402;2022-09-24T04:37:05;98989.47;;;12.27;92.03
43147;BME280;28752;48.266;7.402;2022-09-24T04:39:31;98979.34;;;12.22;92.10
43147;BME280;28752;48.266;7.402;2022-09-24T04:41:56;98953.31;;;12.09;92.22
43147;BME280;28752;48.266;7.402;2022-09-24T04:44:22;98959.31;;;12.12;92.44
43147;BME280;28752;48.266;7.402;2022-09-24T04:46:48;98976.69;;;12.22;92.26
43147;BME280;28752;48.266;7.402;2022-09-24T04:49:14;98969.91;;;12.20;92.19
43147;BME280;28752;48.266;7.402;2022-09-24T04:51:40;98972.53;;;12.28;91.97
43147;BME280;28752;48.266;7.402;2022-09-24T04:54:07;98967.09;;;12.13;92.26
43147;BME280;28752;48.266;7.402;2022-09-24T04:56:33;98994.94;;;12.25;92.66
43147;BME280;28752;48.266;7.402;2022-09-24T04:58:58;98989.63;;;12.25;92.62
43147;BME280;28752;48.266;7.402;2022-09-24T05:01:24;98993.59;;;12.30;92.65
43147;BME280;28752;48.266;7.402;2022-09-24T05:03:50;98979.84;;;12.26;92.14
43147;BME280;28752;48.266;7.402;2022-09-24T05:06:15;98979.50;;;12.29;92.27
43147;BME280;28752;48.266;7.402;2022-09-24T05:08:40;98973.53;;;12.27;92.64
43147;BME280;28752;48.266;7.402;2022-09-24T05:11:06;98982.16;;;12.29;92.33
43147;BME280;28752;48.266;7.402;2022-09-24T05:13:32;98986.31;;;12.32;92.20
43147;BME280;28752;48.266;7.402;2022-09-24T05:15:59;99002.25;;;12.32;92.41
43147;BME280;28752;48.266;7.402;2022-09-24T05:18:25;98997.75;;;12.32;92.30
43147;BME280;28752;48.266;7.402;2022-09-24T05:20:51;98994.59;;;12.37;92.00
43147;BME280;28752;48.266;7.402;2022-09-24T05:23:18;98979.66;;;12.27;92.36
43147;BME280;28752;48.266;7.402;2022-09-24T05:25:43;98987.63;;;12.36;92.46
43147;BME280;28752;48.266;7.402;2022-09-24T05:28:27;98989.63;;;12.34;92.35
43147;BME280;28752;48.266;7.402;2022-09-24T05:30:56;98997.59;;;12.42;91.84
43147;BME280;28752;48.266;7.402;2022-09-24T05:33:21;98988.94;;;12.40;91.81
43147;BME280;28752;48.266;7.402;2022-09-24T05:35:52;98985.81;;;12.36;92.04
43147;BME280;28752;48.266;7.402;2022-09-24T05:38:18;98984.31;;;12.42;92.29
43147;BME280;28752;48.266;7.402;2022-09-24T05:40:44;98992.75;;;12.46;92.29
43147;BME280;28752;48.266;7.402;2022-09-24T05:43:12;98989.78;;;12.40;92.28
43147;BME280;28752;48.266;7.402;2022-09-24T05:45:38;98983.97;;;12.37;92.14
43147;BME280;28752;48.266;7.402;2022-09-24T05:48:04;99008.00;;;12.52;92.18
43147;BME280;28752;48.266;7.402;2022-09-24T05:50:30;99013.31;;;12.52;92.05
43147;BME280;28752;48.266;7.402;2022-09-24T05:53:02;99015.47;;;12.56;92.37
43147;BME280;28752;48.266;7.402;2022-09-24T05:55:28;99012.31;;;12.61;92.47
43147;BME280;28752;48.266;7.402;2022-09-24T05:57:53;99013.63;;;12.65;92.28
43147;BME280;28752;48.266;7.402;2022-09-24T06:00:19;99005.50;;;12.67;92.24
43147;BME280;28752;48.266;7.402;2022-09-24T06:02:44;99004.31;;;12.69;92.15
43147;BME280;28752;48.266;7.402;2022-09-24T06:05:10;99010.78;;;12.75;92.10
43147;BME280;28752;48.266;7.402;2022-09-24T06:07:36;98999.16;;;12.76;91.09
43147;BME280;28752;48.266;7.402;2022-09-24T06:10:01;99005.28;;;12.76;91.14
43147;BME280;28752;48.266;7.402;2022-09-24T06:12:27;99009.63;;;12.77;90.44
43147;BME280;28752;48.266;7.402;2022-09-24T06:14:52;99017.22;;;12.89;90.93
43147;BME280;28752;48.266;7.402;2022-09-24T06:17:19;99012.91;;;12.79;89.86
43147;BME280;28752;48.266;7.402;2022-09-24T06:19:45;99023.56;;;12.79;89.57
43147;BME280;28752;48.266;7.402;2022-09-24T06:22:11;99024.53;;;12.87;88.39
43147;BME280;28752;48.266;7.402;2022-09-24T06:24:37;99034.00;;;12.89;88.43
43147;BME280;28752;48.266;7.402;2022-09-24T06:27:02;99021.06;;;12.78;88.82
43147;BME280;28752;48.266;7.402;2022-09-24T06:29:28;99024.41;;;12.80;88.24
43147;BME280;28752;48.266;7.402;2022-09-24T06:31:53;99025.03;;;12.82;88.04
43147;BME280;28752;48.266;7.402;2022-09-24T06:34:18;99025.22;;;12.80;88.64
43147;BME280;28752;48.266;7.402;2022-09-24T06:36:44;99032.03;;;12.83;89.80
43147;BME280;28752;48.266;7.402;2022-09-24T06:39:09;99009.31;;;12.72;89.51
43147;BME280;28752;48.266;7.402;2022-09-24T06:41:35;99024.38;;;12.88;90.04
43147;BME280;28752;48.266;7.402;2022-09-24T06:44:00;99030.78;;;13.02;90.11
43147;BME280;28752;48.266;7.402;2022-09-24T06:46:26;99027.16;;;13.03;90.11
43147;BME280;28752;48.266;7.402;2022-09-24T06:48:51;99022.63;;;13.12;89.85
43147;BME280;28752;48.266;7.402;2022-09-24T06:51:19;99033.69;;;13.24;89.82
43147;BME280;28752;48.266;7.402;2022-09-24T06:53:44;99033.19;;;13.37;89.09
43147;BME280;28752;48.266;7.402;2022-09-24T06:56:10;99029.66;;;13.44;88.97
43147;BME280;28752;48.266;7.402;2022-09-24T06:58:35;99035.09;;;13.51;89.23
43147;BME280;28752;48.266;7.402;2022-09-24T07:01:02;99033.09;;;13.53;89.27
43147;BME280;28752;48.266;7.402;2022-09-24T07:03:30;99033.31;;;13.43;89.32
43147;BME280;28752;48.266;7.402;2022-09-24T07:05:59;99030.81;;;13.42;89.54
43147;BME280;28752;48.266;7.402;2022-09-24T07:08:25;99014.88;;;13.42;89.53
43147;BME280;28752;48.266;7.402;2022-09-24T07:10:50;99009.19;;;13.45;89.50
43147;BME280;28752;48.266;7.402;2022-09-24T07:13:19;99024.97;;;13.46;90.14
43147;BME280;28752;48.266;7.402;2022-09-24T07:15:49;99027.72;;;13.61;89.24
43147;BME280;28752;48.266;7.402;2022-09-24T07:18:15;99032.50;;;13.74;88.47
43147;BME280;28752;48.266;7.402;2022-09-24T07:20:41;99036.06;;;13.81;88.14
43147;BME280;28752;48.266;7.402;2022-09-24T07:23:08;99029.75;;;13.82;88.23
43147;BME280;28752;48.266;7.402;2022-09-24T07:25:34;99038.75;;;13.81;88.47
43147;BME280;28752;48.266;7.402;2022-09-24T07:28:05;99037.47;;;13.77;88.40
43147;BME280;28752;48.266;7.402;2022-09-24T07:30:32;99042.91;;;13.84;88.02
43147;BME280;28752;48.266;7.402;2022-09-24T07:32:58;99042.50;;;13.95;87.05
43147;BME280;28752;48.266;7.402;2022-09-24T07:35:25;99041.44;;;14.04;86.46
43147;BME280;28752;48.266;7.402;2022-09-24T07:38:02;99037.69;;;14.14;85.29
43147;BME280;28752;48.266;7.402;2022-09-24T07:40:29;99037.63;;;14.22;84.10
43147;BME280;28752;48.266;7.402;2022-09-24T07:42:54;99051.81;;;14.37;83.44
43147;BME280;28752;48.266;7.402;2022-09-24T07:45:22;99053.31;;;14.55;82.13
43147;BME280;28752;48.266;7.402;2022-09-24T07:48:04;99059.53;;;14.70;81.12
43147;BME280;28752;48.266;7.402;2022-09-24T07:50:34;99063.59;;;14.81;81.22
43147;BME280;28752;48.266;7.402;2022-09-24T07:53:02;99044.38;;;14.86;82.08
43147;BME280;28752;48.266;7.402;2022-09-24T07:55:28;99057.81;;;15.07;82.70
43147;BME280;28752;48.266;7.402;2022-09-24T07:57:54;99058.38;;;15.18;83.45
43147;BME280;28752;48.266;7.402;2022-09-24T08:00:20;99042.84;;;15.21;83.17
43147;BME280;28752;48.266;7.402;2022-09-24T08:02:49;99053.94;;;15.25;83.45
43147;BME280;28752;48.266;7.402;2022-09-24T08:05:18;99049.34;;;15.19;83.95
43147;BME280;28752;48.266;7.402;2022-09-24T08:07:54;99049.53;;;15.32;83.58
43147;BME280;28752;48.266;7.402;2022-09-24T08:10:20;99055.13;;;15.37;83.71
43147;BME280;28752;48.266;7.402;2022-09-24T08:12:45;99058.53;;;15.46;83.57
43147;BME280;28752;48.266;7.402;2022-09-24T08:15:10;99054.53;;;15.57;83.24
43147;BME280;28752;48.266;7.402;2022-09-24T08:17:36;99053.59;;;15.64;82.95
43147;BME280;28752;48.266;7.402;2022-09-24T08:20:01;99055.72;;;15.69;83.06
43147;BME280;28752;48.266;7.402;2022-09-24T08:22:26;99066.81;;;15.88;83.39
43147;BME280;28752;48.266;7.402;2022-09-24T08:24:52;99074.84;;;16.09;83.23
43147;BME280;28752;48.266;7.402;2022-09-24T08:27:17;99074.72;;;16.17;82.74
43147;BME280;28752;48.266;7.402;2022-09-24T08:29:45;99074.28;;;16.36;81.71
43147;BME280;28752;48.266;7.402;2022-09-24T08:32:10;99067.97;;;16.43;81.36
43147;BME280;28752;48.266;7.402;2022-09-24T08:34:37;99069.19;;;16.41;81.85
43147;BME280;28752;48.266;7.402;2022-09-24T08:37:05;99076.38;;;16.40;82.18
43147;BME280;28752;48.266;7.402;2022-09-24T08:39:31;99070.84;;;16.42;82.56
43147;BME280;28752;48.266;7.402;2022-09-24T08:42:03;99079.38;;;16.52;82.39
43147;BME280;28752;48.266;7.402;2022-09-24T08:44:30;99073.25;;;16.58;82.10
43147;BME280;28752;48.266;7.402;2022-09-24T08:47:36;99074.09;;;16.65;82.02
43147;BME280;28752;48.266;7.402;2022-09-24T08:50:13;99063.91;;;16.76;81.29
43147;BME280;28752;48.266;7.402;2022-09-24T08:55:21;99069.25;;;16.76;80.04
43147;BME280;28752;48.266;7.402;2022-09-24T09:01:23;99064.56;;;16.78;81.18
43147;BME280;28752;48.266;7.402;2022-09-24T09:04:00;99069.56;;;16.87;80.36
43147;BME280;28752;48.266;7.402;2022-09-24T09:06:52;99060.59;;;17.02;79.52
43147;BME280;28752;48.266;7.402;2022-09-24T09:09:22;99065.44;;;17.20;78.08
43147;BME280;28752;48.266;7.402;2022-09-24T09:12:12;99065.78;;;17.52;77.65
43147;BME280;28752;48.266;7.402;2022-09-24T09:15:02;99059.06;;;17.69;76.96
43147;BME280;28752;48.266;7.402;2022-09-24T09:17:51;99069.19;;;17.81;76.48
43147;BME280;28752;48.266;7.402;2022-09-24T09:20:29;99067.00;;;17.98;76.67
43147;BME280;28752;48.266;7.402;2022-09-24T09:22:58;99060.19;;;17.95;76.32
43147;BME280;28752;48.266;7.402;2022-09-24T09:25:29;99071.53;;;17.97;76.65
43147;BME280;28752;48.266;7.402;2022-09-24T09:28:01;99084.13;;;18.23;75.91
43147;BME280;28752;48.266;7.402;2022-09-24T09:30:34;99068.72;;;18.39;74.10
43147;BME280;28752;48.266;7.402;2022-09-24T09:38:57;99074.50;;;18.56;73.01
43147;BME280;28752;48.266;7.402;2022-09-24T09:41:34;99059.63;;;18.40;73.24
43147;BME280;28752;48.266;7.402;2022-09-24T09:44:14;99079.22;;;18.47;73.29
43147;BME280;28752;48.266;7.402;2022-09-24T09:46:46;99081.69;;;18.35;74.07
43147;BME280;28752;48.266;7.402;2022-09-24T09:49:14;99074.66;;;18.14;74.98
43147;BME280;28752;48.266;7.402;2022-09-24T09:51:41;99075.88;;;17.98;76.06
43147;BME280;28752;48.266;7.402;2022-09-24T09:54:08;99076.41;;;17.87;76.49
43147;BME280;28752;48.266;7.402;2022-09-24T09:56:41;99069.19;;;17.74;77.30
43147;BME280;28752;48.266;7.402;2022-09-24T10:01:41;99063.09;;;17.93;77.73
43147;BME280;28752;48.266;7.402;2022-09-24T10:07:15;99069.94;;;18.50;76.48
43147;BME280;28752;48.266;7.402;2022-09-24T10:09:42;99068.06;;;18.70;75.75
43147;BME280;28752;48.266;7.402;2022-09-24T10:12:16;99067.69;;;18.93;74.53
43147;BME280;28752;48.266;7.402;2022-09-24T10:14:43;99060.22;;;18.89;73.23
43147;BME280;28752;48.266;7.402;2022-09-24T10:17:12;99069.47;;;19.13;72.75
43147;BME280;28752;48.266;7.402;2022-09-24T10:19:39;99061.44;;;19.06;72.64
43147;BME280;28752;48.266;7.402;2022-09-24T10:22:14;99063.25;;;19.26;72.77
43147;BME280;28752;48.266;7.402;2022-09-24T10:24:43;99056.66;;;19.28;71.62
43147;BME280;28752;48.266;7.402;2022-09-24T10:27:13;99048.84;;;19.13;71.88
43147;BME280;28752;48.266;7.402;2022-09-24T10:29:43;99070.50;;;19.18;72.59
43147;BME280;28752;48.266;7.402;2022-09-24T10:32:27;99056.28;;;19.11;72.81
43147;BME280;28752;48.266;7.402;2022-09-24T10:34:58;99041.00;;;19.12;72.52
43147;BME280;28752;48.266;7.402;2022-09-24T10:37:24;99060.56;;;19.19;72.16
43147;BME280;28752;48.266;7.402;2022-09-24T10:40:00;99048.06;;;18.99;72.87
43147;BME280;28752;48.266;7.402;2022-09-24T10:42:28;99053.63;;;19.05;72.79
43147;BME280;28752;48.266;7.402;2022-09-24T10:44:55;99061.63;;;19.11;72.57
43147;BME280;28752;48.266;7.402;2022-09-24T10:50:19;99048.66;;;19.02;72.72
43147;BME280;28752;48.266;7.402;2022-09-24T10:53:05;99056.28;;;19.18;72.33
43147;BME280;28752;48.266;7.402;2022-09-24T10:55:50;99049.44;;;19.15;72.79
43147;BME280;28752;48.266;7.402;2022-09-24T11:01:07;99047.16;;;19.26;72.51
43147;BME280;28752;48.266;7.402;2022-09-24T11:15:28;99043.38;;;19.47;72.58
43147;BME280;28752;48.266;7.402;2022-09-24T11:20:35;99027.53;;;19.70;71.63
43147;BME280;28752;48.266;7.402;2022-09-24T11:26:01;99046.44;;;19.57;70.79
43147;BME280;28752;48.266;7.402;2022-09-24T11:28:39;99043.41;;;19.85;70.42
43147;BME280;28752;48.266;7.402;2022-09-24T11:31:42;99014.84;;;19.91;69.68
43147;BME280;28752;48.266;7.402;2022-09-24T11:50:58;98997.56;;;20.81;66.05
43147;BME280;28752;48.266;7.402;2022-09-24T11:53:56;98989.09;;;20.34;64.89
43147;BME280;28752;48.266;7.402;2022-09-24T11:56:34;98973.41;;;20.31;63.67
43147;BME280;28752;48.266;7.402;2022-09-24T12:01:37;98988.00;;;20.60;65.62
43147;BME280;28752;48.266;7.402;2022-09-24T12:04:12;98987.91;;;20.73;65.43
43147;BME280;28752;48.266;7.402;2022-09-24T12:06:46;98985.09;;;20.87;64.02
43147;BME280;28752;48.266;7.402;2022-09-24T12:09:36;98980.25;;;20.77;60.53
43147;BME280;28752;48.266;7.402;2022-09-24T12:12:12;98966.72;;;20.84;61.82
43147;BME280;28752;48.266;7.402;2022-09-24T12:14:48;98972.31;;;20.82;60.55
43147;BME280;28752;48.266;7.402;2022-09-24T12:17:20;98971.22;;;20.65;59.89
43147;BME280;28752;48.266;7.402;2022-09-24T12:22:38;98978.59;;;20.51;62.85
43147;BME280;28752;48.266;7.402;2022-09-24T12:25:09;98969.72;;;20.50;60.67
43147;BME280;28752;48.266;7.402;2022-09-24T12:27:37;98960.69;;;20.63;60.14
43147;BME280;28752;48.266;7.402;2022-09-24T12:30:22;98955.50;;;20.68;59.42
43147;BME280;28752;48.266;7.402;2022-09-24T12:41:13;98948.19;;;20.94;59.19
43147;BME280;28752;48.266;7.402;2022-09-24T12:46:21;98945.09;;;20.72;58.48
43147;BME280;28752;48.266;7.402;2022-09-24T12:48:49;98947.44;;;20.43;57.76
43147;BME280;28752;48.266;7.402;2022-09-24T12:51:16;98945.56;;;20.44;59.22
43147;BME280;28752;48.266;7.402;2022-09-24T12:54:05;98921.44;;;20.37;58.04
43147;BME280;28752;48.266;7.402;2022-09-24T12:56:32;98924.50;;;20.40;58.34
43147;BME280;28752;48.266;7.402;2022-09-24T12:58:59;98945.34;;;20.45;57.72
43147;BME280;28752;48.266;7.402;2022-09-24T13:01:29;98923.31;;;20.36;58.09
43147;BME280;28752;48.266;7.402;2022-09-24T13:06:41;98934.28;;;20.35;58.08
43147;BME280;28752;48.266;7.402;2022-09-24T13:14:53;98906.44;;;20.04;64.78
43147;BME280;28752;48.266;7.402;2022-09-24T13:17:21;98926.41;;;20.15;64.93
43147;BME280;28752;48.266;7.402;2022-09-24T13:19:46;98918.06;;;20.23;64.28
43147;BME280;28752;48.266;7.402;2022-09-24T13:22:39;98892.16;;;20.29;66.24
43147;BME280;28752;48.266;7.402;2022-09-24T13:27:41;98920.63;;;20.36;64.21
43147;BME280;28752;48.266;7.402;2022-09-24T13:30:35;98926.75;;;20.44;63.76
43147;BME280;28752;48.266;7.402;2022-09-24T13:35:53;98929.31;;;20.13;66.57
43147;BME280;28752;48.266;7.402;2022-09-24T13:38:29;98919.44;;;19.75;68.85
43147;BME280;28752;48.266;7.402;2022-09-24T13:43:55;98930.19;;;19.05;71.50
43147;BME280;28752;48.266;7.402;2022-09-24T13:46:24;98926.28;;;19.00;71.47
43147;BME280;28752;48.266;7.402;2022-09-24T13:48:54;98933.97;;;18.90;72.39
43147;BME280;28752;48.266;7.402;2022-09-24T13:51:24;98919.38;;;18.66;75.32
43147;BME280;28752;48.266;7.402;2022-09-24T13:56:22;98908.28;;;18.49;79.03
43147;BME280;28752;48.266;7.402;2022-09-24T13:58:47;98929.09;;;18.54;80.12
43147;BME280;28752;48.266;7.402;2022-09-24T14:01:22;98934.88;;;18.51;81.06
43147;BME280;28752;48.266;7.402;2022-09-24T14:03:54;98926.84;;;18.44;82.27
43147;BME280;28752;48.266;7.402;2022-09-24T14:06:38;98912.25;;;18.20;82.78
43147;BME280;28752;48.266;7.402;2022-09-24T14:11:56;98905.84;;;18.14;84.32
43147;BME280;28752;48.266;7.402;2022-09-24T14:14:24;98921.72;;;18.16;85.46
43147;BME280;28752;48.266;7.402;2022-09-24T14:16:51;98881.78;;;17.94;85.25
43147;BME280;28752;48.266;7.402;2022-09-24T14:19:19;98864.06;;;17.80;86.84
43147;BME280;28752;48.266;7.402;2022-09-24T14:21:52;98864.66;;;17.68;87.70
43147;BME280;28752;48.266;7.402;2022-09-24T14:26:57;98929.97;;;17.87;90.70
43147;BME280;28752;48.266;7.402;2022-09-24T14:29:33;98940.03;;;17.72;86.44
43147;BME280;28752;48.266;7.402;2022-09-24T14:32:03;98898.56;;;17.14;84.05
43147;BME280;28752;48.266;7.402;2022-09-24T14:34:39;98945.28;;;17.25;81.80
43147;BME280;28752;48.266;7.402;2022-09-24T14:37:10;98898.66;;;16.93;83.65
43147;BME280;28752;48.266;7.402;2022-09-24T14:39:40;98935.81;;;17.16;85.34
43147;BME280;28752;48.266;7.402;2022-09-24T14:42:18;98916.63;;;17.05;86.06
43147;BME280;28752;48.266;7.402;2022-09-24T14:44:47;98912.09;;;17.06;88.14
43147;BME280;28752;48.266;7.402;2022-09-24T14:47:31;98918.69;;;17.10;89.96
43147;BME280;28752;48.266;7.402;2022-09-24T14:49:57;98896.03;;;17.06;89.66
43147;BME280;28752;48.266;7.402;2022-09-24T14:57:40;98910.75;;;17.50;91.13
43147;BME280;28752;48.266;7.402;2022-09-24T15:05:15;98922.53;;;17.69;89.96
43147;BME280;28752;48.266;7.402;2022-09-24T15:07:41;98925.81;;;17.65;90.27
43147;BME280;28752;48.266;7.402;2022-09-24T15:10:16;98924.97;;;17.57;90.02
43147;BME280;28752;48.266;7.402;2022-09-24T15:12:44;98914.25;;;17.37;89.19
43147;BME280;28752;48.266;7.402;2022-09-24T15:17:42;98938.50;;;17.29;89.79
43147;BME280;28752;48.266;7.402;2022-09-24T15:20:09;98920.09;;;16.99;90.92
43147;BME280;28752;48.266;7.402;2022-09-24T15:22:35;98947.47;;;17.01;90.44
43147;BME280;28752;48.266;7.402;2022-09-24T15:25:00;98928.16;;;16.71;90.67
43147;BME280;28752;48.266;7.402;2022-09-24T15:27:28;98954.88;;;16.71;91.02
43147;BME280;28752;48.266;7.402;2022-09-24T15:29:55;98853.75;;;15.98;91.14